Carlos Aravena

Recruteur - O'Higgins
9 Déc 2027
Jeudi
Processus

Personnalité

Adaptabilité (2) Ambition (15) Controverse (14) Loyauté (15) Pression (7) Professionnalisme (20) Sportivité (19) Tempérament (4)

Profil

Style d'entraînement Démocratique
Diplôme National B
Détermination 5
Gestion des joueurs 5
Motivation 11
Discipline 8
Satisfaction professionnelle
100%
Fatigue
0%
Rôle Recruteur
Salaire 74.8K p/s
Contrat 14.03.2028

Performance

Comportement Bon
Efficacité de l'entraînement
44%
Développement des joueurs
55%
Prévention des blessures
50%
Mise en place tactique
40%

Événements récents

A participé à une réunion de recrutement maintenant
A évalué un joueur 7j
A participé à une réunion de recrutement 7j
A recommandé une cible de transfert 7j
A participé à une réunion de recrutement 7j
A évalué un joueur 7j
A présenté un dossier au conseil 7j
A présenté un dossier au conseil 7j

Suivi en cours

233
Joueur Club Statut Capacité Confiance Observé Dernière observation Dernier vote
Marcos Camarda Santiago Wanderers Perdu 110 / 107 69% 1 01.12.2027 -
Alan Cantero Alianza Lima Actif 124 / 128 40% 1 30.11.2027 -
Eric Ramírez Llaneros Actif 111 / 105 40% 1 30.11.2027 -
Leonardo Campana New England Revolution Actif 129 / 135 40% 1 30.11.2027 -
Hervin Goyes Deportivo Pasto Actif 110 / 101 40% 3 29.11.2027 -
Cristian Florez Cortulua Actif 95 / 99 40% 2 29.11.2027 -
Joel Ezra Enyimba Actif 107 / 110 40% 2 29.11.2027 -
Santiago López Independiente Actif 127 / 135 40% 3 28.11.2027 -
Franco Tejera Oriental Actif 71 / 76 40% 2 28.11.2027 -
Ryunosuke Sato Valencia Actif 139 / 133 40% 1 28.11.2027 -
Wilfred Correa Caracas Actif 97 / 89 40% 3 25.11.2027 -
Emiliano Zambrano Gimnasia y Esgrima Actif 99 / 105 40% 2 25.11.2027 -
José Caldera Deportivo Cali Actif 117 / 113 40% 2 21.11.2027 -
Alex Amaefula Kun Khalifat Actif 76 / 87 40% 3 21.11.2027 -
Anderson Angulo Deportes Tolima Actif 128 / 113 40% 4 21.11.2027 -
José Ortiz Atletico Bucaramanga Actif 124 / 128 40% 3 21.11.2027 -
Santino Carrizo Chacarita Juniors Actif 83 / 88 40% 2 21.11.2027 -
Mustapha Umar Kano Pillars Actif 93 / 92 40% 2 20.11.2027 -
Tomás Aranda Boca Juniors Actif 111 / 122 40% 1 20.11.2027 -
Facundo Martínez Montevideo City Torque Actif 81 / 89 40% 1 20.11.2027 -
Cristian Graciano Junior Actif 115 / 110 40% 3 18.11.2027 -
Esneyder Mena Deportivo Pasto Actif 118 / 114 40% 2 18.11.2027 -
Jan Carlos Ángulo Deportes Tolima Actif 124 / 116 40% 6 17.11.2027 -
Ronaldo Lora Real Cartagena Actif 120 / 106 40% 2 17.11.2027 -
Dylan Lozano Aguilas Doradas Actif 106 / 119 40% 2 17.11.2027 -
Mateo Mendoza Godoy Cruz Actif 126 / 128 40% 5 16.11.2027 -
Juan Camilo Mosquera Atletico Bucaramanga Actif 109 / 125 40% 3 16.11.2027 -
Joaquín Varela Independiente Medellin Actif 116 / 129 40% 2 16.11.2027 -
Mateo Castillo Millonarios Actif 129 / 118 40% 3 15.11.2027 -
Yílmar Velásquez Santa Fe Actif 128 / 130 40% 5 15.11.2027 -
Ralph Orquin Seattle Sounders Actif 127 / 118 40% 1 15.11.2027 -
Junior Hernández Deportes Tolima Actif 124 / 115 40% 4 14.11.2027 -
Brian Calderara Chacarita Juniors Actif 121 / 125 40% 1 14.11.2027 -
Nahuel Herrera Penarol Actif 128 / 133 40% 1 14.11.2027 -
Jermein Peña Junior Actif 125 / 132 40% 2 13.11.2027 -
Luis Olivera Defensores Unidos Actif 117 / 121 40% 2 13.11.2027 -
Alfredo Giraldo La Equidad Actif 134 / 123 40% 2 13.11.2027 -
Bryan Rovira Deportes Tolima Actif 119 / 126 40% 2 12.11.2027 -
Samuel Velásquez Atletico Nacional Actif 125 / 114 40% 2 12.11.2027 -
Nicolás Tripichio San Lorenzo Actif 127 / 114 40% 1 12.11.2027 -
Mateo Silvetti Los Angeles Football Club Actif 125 / 132 40% 4 10.11.2027 -
Daniel Ferraresi Llaneros Actif 77 / 93 40% 2 10.11.2027 -
Luis Vidal Deportivo Pereira Actif 87 / 89 40% 3 10.11.2027 -
Lucas Carrizo Newell's Old Boys Actif 125 / 118 40% 1 10.11.2027 -
Bruno Leyes Godoy Cruz Actif 131 / 128 40% 3 07.11.2027 -
Sasha Marcich Lanús Actif 129 / 119 40% 2 07.11.2027 -
Francisco Facello Chacarita Juniors Actif 118 / 120 40% 1 07.11.2027 -
Gonzalo Abrego Godoy Cruz Actif 123 / 121 40% 4 05.11.2027 -
Emiliano Álvarez Progreso Actif 129 / 116 40% 1 05.11.2027 -
Santiago Jiménez Deportivo Pasto Actif 120 / 119 40% 3 03.11.2027 -
Eber Moreno Deportivo Pereira Actif 110 / 111 40% 2 03.11.2027 -
Juan Saborido Platense Actif 128 / 125 40% 1 03.11.2027 -
Juan Camilo Córdoba Deportivo Pereira Actif 84 / 93 40% 1 03.11.2027 -
Sebastián Ramírez Jaguares Actif 101 / 117 40% 3 02.11.2027 -
Tiziano Cabrera Central Norte Actif 91 / 104 40% 3 02.11.2027 -
Matías Canedo Rampla Juniors Actif 86 / 93 40% 1 02.11.2027 -
Gustavo Lozano Metropolitanos Actif 88 / 93 40% 2 01.11.2027 -
David Valencia Alianza Petrolera Actif 131 / 135 40% 3 31.10.2027 -
Mauro Carrizo Atlético Tucumán Actif 96 / 114 40% 1 31.10.2027 -
Oscar Otero Atletico Venezuela Actif 99 / 102 40% 2 30.10.2027 -
Alfie James Ventforet Kofu Actif 93 / 84 40% 2 30.10.2027 -
Walter Juárez Güemes Actif 110 / 104 40% 1 27.10.2027 -
Nicolás Paz San Martín SJ Actif 119 / 122 40% 3 26.10.2027 -
Julián Cosi Madryn Actif 108 / 115 40% 2 26.10.2027 -
Alejo Tabares All Boys Actif 111 / 107 40% 1 26.10.2027 -
Leonardo Gonzalez Cortulua Actif 121 / 128 40% 2 24.10.2027 -
Tomás Rojas Atlanta Actif 109 / 114 40% 3 24.10.2027 -
Wilmar Hurtado Millonarios Actif 130 / 124 40% 3 24.10.2027 -
Nicolás Gil America de Cali Actif 112 / 117 40% 2 23.10.2027 -
Sebastian Murillo La Equidad Actif 111 / 122 40% 2 23.10.2027 -
Matías Machado Racing Actif 117 / 123 40% 1 23.10.2027 -
Bryan Caicedo Leones Actif 110 / 114 40% 3 22.10.2027 -
Léider Riascos Atletico Bucaramanga Actif 118 / 124 40% 5 22.10.2027 -
Lucas Monzón Alvarado Actif 118 / 102 40% 1 19.10.2027 -
Alejandro Molina Tristán Suárez Actif 111 / 117 40% 2 18.10.2027 -
Cristian Trujillo Deportes Tolima Actif 113 / 116 40% 1 18.10.2027 -
Tiago Gordillo San Miguel Actif 79 / 101 40% 1 17.10.2027 -
Mateo Peralta Danubio Actif 109 / 124 40% 5 16.10.2027 -
Matías Lozano Deportivo Pasto Actif 110 / 117 40% 4 16.10.2027 -
Jorman Campuzano Atletico Nacional Actif 119 / 118 40% 2 12.10.2027 -
Maren Kefas Plateau United Actif 96 / 101 40% 3 12.10.2027 -
Tomás Ferreyra Defensores Unidos Actif 111 / 123 40% 1 07.10.2027 -
Andrés Tello Deportes Quindio Actif 106 / 113 40% 1 06.10.2027 -
Gonzalo Asis Almagro Actif 111 / 112 40% 1 04.10.2027 -
Hassan Beja AFC Leopards Actif 76 / 102 40% 1 03.10.2027 -
Wisdom Udom Bendel Insurance Actif 83 / 89 40% 2 02.10.2027 -
Esteban de Lima Tacuarembo Actif 89 / 100 40% 1 29.09.2027 -
Dylan Cabral Arsenal Actif 100 / 113 40% 2 23.09.2027 -
Mauro Osores San Martín SJ Actif 106 / 123 40% 1 15.09.2027 -
Braian Aranda Agropecuario Argentino Actif 116 / 108 40% 1 14.09.2027 -
Franco Camargo Gimnasia y Esgrima Actif 106 / 106 40% 1 13.09.2027 -
James Cardona La Equidad Actif 148 / 149 40% 1 13.09.2027 -
Brandon Álvarez Penarol Actif 86 / 109 40% 1 10.09.2027 -
Diogo Guzmán Montevideo City Torque Actif 119 / 106 40% 1 08.09.2027 -
Sadiq Auwal Niger Tornadoes Actif 85 / 93 40% 1 08.09.2027 -
Christos Mouzakitis Hull City Actif 138 / 131 40% 4 19.07.2027 Observer
Quinten Timber Crystal Palace Actif 152 / 151 40% 1 19.07.2027 -
Adam Idah Swansea City Actif 131 / 107 40% 2 28.06.2027 -
Ismaïla Sarr Crystal Palace Actif 140 / 145 40% 1 28.06.2027 -
Tyreece Campbell Charlton Athletic Actif 131 / 108 40% 1 28.06.2027 -
Dion Beljo Standard Liege Négociation 131 / 132 66% 1 01.06.2027 Approuver
Jesús Rodríguez Como Actif 149 / 148 40% 2 30.05.2027 -
Teden Mengi Luton Town Actif 130 / 132 40% 4 29.05.2027 -
Radinio Balker Huddersfield Town Actif 112 / 133 40% 4 29.05.2027 -
Ethan Williams Peterborough United Actif 104 / 119 40% 2 29.05.2027 -
Bosun Lawal Stoke City Actif 121 / 126 40% 3 28.05.2027 -
Josh Tymon Swansea City Actif 122 / 114 40% 6 28.05.2027 -
Richard Koné Queens Park Rangers Actif 126 / 139 40% 3 28.05.2027 -
Shea Charles Southampton Actif 136 / 122 40% 2 28.05.2027 -
Harry Leonard Peterborough United Actif 112 / 123 40% 1 28.05.2027 -
Tommy Conway Middlesbrough Actif 128 / 141 40% 1 28.05.2027 -
Hamza Choudhury Leicester City Actif 120 / 135 40% 4 27.05.2027 -
Joel McGregor Swindon Town Actif 98 / 97 40% 3 26.05.2027 -
Oscar Schwartau Norwich City Actif 120 / 120 40% 2 26.05.2027 -
Kane Wilson Milton Keynes Dons Actif 114 / 101 40% 2 25.05.2027 -
Tyrese Campbell Sheffield United Actif 126 / 134 40% 2 24.05.2027 -
Ross McCrorie Bristol City Actif 128 / 114 40% 3 24.05.2027 -
Imrân Louza Watford Actif 141 / 143 40% 2 24.05.2027 -
Ilyas Ansah Hull City Actif 137 / 127 40% 2 24.05.2027 -
Ethan Pye Stockport County Actif 116 / 118 40% 1 24.05.2027 -
Florentino Luís Ipswich Town Actif 152 / 133 40% 5 22.05.2027 -
Luke McNally Bristol City Actif 128 / 147 40% 2 22.05.2027 -
Guillem Molina Huesca Actif 102 / 119 40% 4 22.05.2027 -
Dara O'Shea Ipswich Town Actif 125 / 148 40% 4 21.05.2027 -
James Morris Leyton Orient Actif 106 / 131 40% 1 21.05.2027 -
Othmane Maamma Watford Actif 126 / 140 40% 1 21.05.2027 -
Leo Castledine Middlesbrough Actif 125 / 128 40% 1 21.05.2027 -
Josh King Chelsea Actif 134 / 163 40% 1 21.05.2027 -
Shea Lacey Wolverhampton Actif 134 / 124 40% 3 20.05.2027 -
Dom Ballard Leyton Orient Actif 121 / 117 40% 2 19.05.2027 -
Lorent Tolaj Plymouth Argyle Actif 132 / 130 40% 3 17.05.2027 -
Yousef Salech Cardiff City Actif 136 / 132 40% 1 17.05.2027 -
Lander Astiazarán Real Sociedad Actif 115 / 122 40% 1 16.05.2027 -
Lynden Edhart Cambuur Actif 110 / 125 40% 1 16.05.2027 -
Gilberto Mora Atlético Madrid Actif 140 / 137 40% 1 16.05.2027 -
Bojan Radulović Huddersfield Town Actif 123 / 110 40% 2 15.05.2027 -
Igor Burnley Actif 135 / 159 40% 1 15.05.2027 -
Marezi Portsmouth Actif 130 / 115 40% 1 15.05.2027 -
Harry Clarke Preston Actif 133 / 122 40% 2 13.05.2027 -
Matthew Sorinola Newport County Actif 118 / 125 40% 1 13.05.2027 -
Amaury Morales Pumas UNAM Actif 106 / 128 40% 1 13.05.2027 -
Hazeem Bakre Crawley Town Actif 76 / 90 40% 3 12.05.2027 -
Aidan Morris Middlesbrough Actif 124 / 131 40% 2 11.05.2027 -
Azor Matusiwa Ipswich Town Actif 141 / 145 40% 2 11.05.2027 -
Rayan Bournemouth Actif 135 / 154 40% 2 11.05.2027 -
Matías Gómez Granada Actif 115 / 118 40% 2 11.05.2027 -
Mandla Erasmus SuperSport United Actif 113 / 114 40% 2 10.05.2027 -
Yussif Saidu Zaragoza Actif 125 / 126 40% 3 10.05.2027 -
Tomás González Piast Actif 115 / 100 40% 2 09.05.2027 -
Saša Lukić Ipswich Town Actif 149 / 136 40% 1 09.05.2027 -
Rubén Duarte Legia Actif 125 / 146 40% 5 08.05.2027 -
Josh Edwards Charlton Athletic Actif 111 / 121 40% 2 08.05.2027 -
Japhet Tanganga Sheffield United Actif 139 / 138 40% 2 06.05.2027 -
Juan Mosquera Sheffield Wednesday Actif 127 / 108 40% 2 06.05.2027 -
Welington Southampton Actif 139 / 145 40% 2 04.05.2027 -
Max Bird Birmingham Actif 129 / 138 40% 3 02.05.2027 -
Ibrahim Maza Bayer Leverkusen Actif 147 / 162 40% 3 02.05.2027 -
Andrei Coubiş Lincoln City Actif 104 / 128 40% 1 02.05.2027 -
Franz-Ethan Meichtry Genoa Actif 110 / 125 40% 1 02.05.2027 -
Tomás Ribeiro Cultural Leonesa Actif 111 / 129 40% 5 01.05.2027 -
Tom Cannon Sheffield United Actif 122 / 125 40% 2 01.05.2027 -
Jofre Torrents Ajax Actif 126 / 126 40% 2 01.05.2027 -
Alessandro Buongiorno Sassuolo Actif 167 / 158 40% 1 01.05.2027 -
André Miranda Porto Actif 100 / 104 40% 1 01.05.2027 -
Luis Vázquez Birmingham Actif 122 / 110 40% 3 29.04.2027 -
Morgan Whittaker Middlesbrough Actif 142 / 124 40% 1 29.04.2027 -
Kenny Tete Fulham Actif 144 / 150 40% 4 28.04.2027 -
Marc Bola Watford Actif 122 / 124 40% 1 28.04.2027 -
Job Ochieng Real Sociedad Actif 114 / 110 40% 2 27.04.2027 -
Christian Saydee Wigan Athletic Actif 112 / 96 40% 1 27.04.2027 -
Kamarni Ryan Burton Albion Actif 101 / 107 40% 1 26.04.2027 -
Caolan Boyd-Munce Wycombe Wanderers Actif 111 / 99 40% 1 25.04.2027 -
Atsuki Ito Bolton Wanderers Actif 124 / 107 40% 2 24.04.2027 -
Habib Diarra Sunderland Actif 136 / 125 40% 1 23.04.2027 -
Jayden Luker Barnet Actif 85 / 107 40% 1 23.04.2027 -
David Ozoh Derby County Actif 128 / 114 40% 2 22.04.2027 -
Mandla Mahlangu Ajax Cape Town Actif 108 / 108 40% 3 21.04.2027 -
Chris Mepham West Bromwich Albion Actif 117 / 118 40% 1 20.04.2027 -
Edvin Austbø West Ham United Actif 122 / 121 40% 1 19.04.2027 -
Callum Doyle Wrexham Actif 123 / 123 40% 3 16.04.2027 -
Rhian Brewster Oxford United Actif 124 / 111 40% 1 16.04.2027 -
Will Lankshear Middlesbrough Actif 127 / 117 40% 1 14.04.2027 -
Ethan Galbraith Swansea City Actif 144 / 129 40% 1 12.04.2027 -
Lewis Ferguson Bologna Actif 147 / 130 40% 2 11.04.2027 -
Di'Shon Bernard Sheffield Wednesday Actif 116 / 107 40% 1 11.04.2027 -
Martim Cunha Porto Actif 98 / 89 40% 1 10.04.2027 -
Milan van Ewijk Mansfield Town Actif 137 / 147 40% 1 10.04.2027 -
Rob Atkinson Bristol City Actif 131 / 135 40% 3 09.04.2027 -
Kristoffer Lund Birmingham Actif 132 / 113 40% 1 08.04.2027 -
Darlin Yongwa Norwich City Actif 130 / 129 40% 1 08.04.2027 -
Percy Jali Free State Stars Actif 96 / 82 40% 1 08.04.2027 -
Caleb Yirenkyi Coventry City Actif 139 / 147 40% 1 08.04.2027 -
Eoin Toal Bolton Wanderers Actif 109 / 118 40% 1 07.04.2027 -
Rodrigo Mora AS Roma Actif 128 / 128 40% 1 07.04.2027 -
Charlie Webster Burton Albion Actif 106 / 114 40% 1 06.04.2027 -
Robert Mizo Ashanti Gold Actif 116 / 120 40% 2 05.04.2027 -
Oliver Skipp Leicester City Actif 120 / 130 40% 2 05.04.2027 -
Adnan Courtois KV Oostende Actif 134 / 131 40% 2 02.04.2027 -
Israel Reyes CSKA Moscow Actif 145 / 130 40% 1 29.03.2027 -
Paik Seung-Ho Birmingham Actif 122 / 129 40% 1 29.03.2027 -
Derry Murkin Derby County Actif 133 / 140 40% 1 26.03.2027 -
Andrea Carboni Monza Actif 125 / 137 40% 1 21.03.2027 -
Zak Swanson Bradford City Actif 113 / 111 40% 1 21.03.2027 -
Kellen Fisher Norwich City Actif 130 / 122 40% 1 19.03.2027 -
Williams Manyama SuperSport United Actif 114 / 111 40% 1 17.03.2027 -
Reda Khadra Qarabag Actif 140 / 112 40% 1 29.11.2026 -
Petar Stanić Ludogorets Actif 139 / 124 40% 2 27.11.2026 -
Jonás Luna Santa Clara Actif 127 / 123 40% 1 27.11.2026 -
Ruben van Bommel Ferencvaros Actif 126 / 124 40% 1 27.11.2026 -
Tomás Silva Platense Actif 120 / 118 40% 2 20.11.2026 -
Franco Zapiola Platense Actif 117 / 116 40% 1 20.11.2026 -
Martín Garay Tigre Actif 115 / 117 40% 2 08.11.2026 -
Christian Krasnodar Actif 136 / 122 40% 1 08.11.2026 -
Jaminton Campaz Rosario Central Actif 119 / 134 40% 1 08.11.2026 -
Derensili Sanches Fernandes Huddersfield Town Actif 124 / 113 40% 1 07.11.2026 -
Fernando Martínez Central Córdoba SdE Actif 111 / 115 40% 1 05.11.2026 -
Manuel Duarte Barracas Central Actif 115 / 117 40% 1 03.11.2026 -
Ramiro Ruiz Rodríguez Atlético Tucumán Actif 123 / 120 40% 2 01.11.2026 -
Tshepang Moremi Orlando Pirates Actif 111 / 121 40% 1 01.11.2026 -
Alexander Díaz Deportivo Riestra Actif 112 / 112 40% 1 23.10.2026 -
Aarón Molinas Defensa y Justicia Actif 120 / 114 40% 1 23.10.2026 -
Juan Velázquez Belgrano Actif 119 / 138 40% 1 22.10.2026 -
Siro Rosané Estudiantes Actif 118 / 111 40% 1 22.10.2026 -
Juan Cruz de los Santos Nacional Actif 130 / 125 40% 1 20.10.2026 -
Ignacio Rodríguez Racing Club Actif 120 / 123 40% 1 19.10.2026 -
Augusto Schott Talleres Actif 123 / 125 40% 1 19.10.2026 -
Valentín Depietri Talleres Actif 115 / 125 40% 1 17.10.2026 -
Matías Fernández Independiente Rivadavia Actif 120 / 120 40% 1 09.10.2026 -
Franco Ibarra Rosario Central Actif 130 / 119 40% 1 09.10.2026 -
Rui Modesto Vancouver Whitecaps Actif 124 / 123 40% 1 08.09.2026 -
Ian Garguez Palestino Actif 111 / 116 30% 1 / 1m 19.08.2026 -
Erico Cuello Defensor Sporting Actif 90 / 115 40% 1 01.08.2026 -
Teun Gijselhart Deportivo La Coruña Actif 96 / 93 40% 1 01.08.2026 -